sensor_id;sensor_type;location;lat;lon;timestamp;P1;durP1;ratioP1;P2;durP2;ratioP2
11699;SDS011;5906;51.660;6.674;2024-02-16T00:02:03;6.77;;;3.60;;
11699;SDS011;5906;51.660;6.674;2024-02-16T00:04:30;5.83;;;3.37;;
11699;SDS011;5906;51.660;6.674;2024-02-16T00:06:58;5.73;;;3.57;;
11699;SDS011;5906;51.660;6.674;2024-02-16T00:09:25;9.83;;;3.20;;
11699;SDS011;5906;51.660;6.674;2024-02-16T00:11:53;5.37;;;3.20;;
11699;SDS011;5906;51.660;6.674;2024-02-16T00:14:21;6.17;;;3.23;;
11699;SDS011;5906;51.660;6.674;2024-02-16T00:16:48;3.43;;;3.00;;
11699;SDS011;5906;51.660;6.674;2024-02-16T00:19:15;4.97;;;3.47;;
11699;SDS011;5906;51.660;6.674;2024-02-16T00:21:42;5.30;;;3.43;;
11699;SDS011;5906;51.660;6.674;2024-02-16T00:24:09;4.10;;;2.97;;
11699;SDS011;5906;51.660;6.674;2024-02-16T00:26:37;8.27;;;2.93;;
11699;SDS011;5906;51.660;6.674;2024-02-16T00:29:06;8.33;;;3.80;;
11699;SDS011;5906;51.660;6.674;2024-02-16T00:31:32;6.53;;;3.13;;
11699;SDS011;5906;51.660;6.674;2024-02-16T00:34:00;7.10;;;3.07;;
11699;SDS011;5906;51.660;6.674;2024-02-16T00:36:27;3.93;;;3.00;;
11699;SDS011;5906;51.660;6.674;2024-02-16T00:38:57;6.50;;;3.30;;
11699;SDS011;5906;51.660;6.674;2024-02-16T00:41:25;8.73;;;3.50;;
11699;SDS011;5906;51.660;6.674;2024-02-16T00:43:53;7.40;;;3.17;;
11699;SDS011;5906;51.660;6.674;2024-02-16T00:46:20;4.83;;;3.13;;
11699;SDS011;5906;51.660;6.674;2024-02-16T00:48:49;5.33;;;3.23;;
11699;SDS011;5906;51.660;6.674;2024-02-16T00:51:18;9.00;;;3.17;;
11699;SDS011;5906;51.660;6.674;2024-02-16T00:53:45;4.53;;;3.23;;
11699;SDS011;5906;51.660;6.674;2024-02-16T00:56:13;5.60;;;2.97;;
11699;SDS011;5906;51.660;6.674;2024-02-16T00:58:40;4.50;;;3.13;;
11699;SDS011;5906;51.660;6.674;2024-02-16T01:01:09;4.20;;;3.27;;
11699;SDS011;5906;51.660;6.674;2024-02-16T01:03:38;5.43;;;3.17;;
11699;SDS011;5906;51.660;6.674;2024-02-16T01:06:06;5.70;;;3.40;;
11699;SDS011;5906;51.660;6.674;2024-02-16T01:08:35;5.83;;;3.17;;
11699;SDS011;5906;51.660;6.674;2024-02-16T01:11:02;5.17;;;3.13;;
11699;SDS011;5906;51.660;6.674;2024-02-16T01:13:30;7.87;;;4.30;;
11699;SDS011;5906;51.660;6.674;2024-02-16T01:15:57;17.33;;;4.60;;
11699;SDS011;5906;51.660;6.674;2024-02-16T01:18:25;14.00;;;4.50;;
11699;SDS011;5906;51.660;6.674;2024-02-16T01:20:56;8.20;;;4.40;;
11699;SDS011;5906;51.660;6.674;2024-02-16T01:23:23;8.07;;;4.23;;
11699;SDS011;5906;51.660;6.674;2024-02-16T01:25:50;8.70;;;4.43;;
11699;SDS011;5906;51.660;6.674;2024-02-16T01:28:17;9.47;;;4.60;;
11699;SDS011;5906;51.660;6.674;2024-02-16T01:30:44;14.33;;;4.60;;
11699;SDS011;5906;51.660;6.674;2024-02-16T01:33:11;11.73;;;4.93;;
11699;SDS011;5906;51.660;6.674;2024-02-16T01:35:38;13.90;;;3.93;;
11699;SDS011;5906;51.660;6.674;2024-02-16T01:38:05;9.70;;;4.07;;
11699;SDS011;5906;51.660;6.674;2024-02-16T01:40:32;8.77;;;3.60;;
11699;SDS011;5906;51.660;6.674;2024-02-16T01:42:59;6.87;;;3.10;;
11699;SDS011;5906;51.660;6.674;2024-02-16T01:45:26;6.20;;;3.47;;
11699;SDS011;5906;51.660;6.674;2024-02-16T01:47:53;8.70;;;3.37;;
11699;SDS011;5906;51.660;6.674;2024-02-16T01:50:21;5.90;;;3.67;;
11699;SDS011;5906;51.660;6.674;2024-02-16T01:52:49;6.30;;;3.43;;
11699;SDS011;5906;51.660;6.674;2024-02-16T01:55:16;4.00;;;3.60;;
11699;SDS011;5906;51.660;6.674;2024-02-16T01:57:44;11.70;;;3.80;;
11699;SDS011;5906;51.660;6.674;2024-02-16T02:00:13;13.53;;;4.00;;
11699;SDS011;5906;51.660;6.674;2024-02-16T02:02:45;9.73;;;3.70;;
11699;SDS011;5906;51.660;6.674;2024-02-16T02:05:13;9.70;;;4.07;;
11699;SDS011;5906;51.660;6.674;2024-02-16T02:07:42;8.80;;;4.00;;
11699;SDS011;5906;51.660;6.674;2024-02-16T02:10:10;6.10;;;3.83;;
11699;SDS011;5906;51.660;6.674;2024-02-16T02:12:40;14.07;;;3.73;;
11699;SDS011;5906;51.660;6.674;2024-02-16T02:15:08;9.47;;;4.20;;
11699;SDS011;5906;51.660;6.674;2024-02-16T02:17:36;8.87;;;3.43;;
11699;SDS011;5906;51.660;6.674;2024-02-16T02:20:03;5.20;;;4.03;;
11699;SDS011;5906;51.660;6.674;2024-02-16T02:22:33;5.80;;;3.90;;
11699;SDS011;5906;51.660;6.674;2024-02-16T02:25:00;8.37;;;4.13;;
11699;SDS011;5906;51.660;6.674;2024-02-16T02:27:27;4.60;;;3.50;;
11699;SDS011;5906;51.660;6.674;2024-02-16T02:29:54;5.87;;;3.70;;
11699;SDS011;5906;51.660;6.674;2024-02-16T02:32:21;8.53;;;4.83;;
11699;SDS011;5906;51.660;6.674;2024-02-16T02:34:48;7.80;;;3.93;;
11699;SDS011;5906;51.660;6.674;2024-02-16T02:37:15;7.93;;;4.10;;
11699;SDS011;5906;51.660;6.674;2024-02-16T02:39:42;3.93;;;3.27;;
11699;SDS011;5906;51.660;6.674;2024-02-16T02:42:10;9.70;;;4.20;;
11699;SDS011;5906;51.660;6.674;2024-02-16T02:44:37;7.23;;;3.50;;
11699;SDS011;5906;51.660;6.674;2024-02-16T02:47:04;8.10;;;3.53;;
11699;SDS011;5906;51.660;6.674;2024-02-16T02:49:31;8.43;;;4.40;;
11699;SDS011;5906;51.660;6.674;2024-02-16T02:52:01;12.23;;;4.50;;
11699;SDS011;5906;51.660;6.674;2024-02-16T02:54:28;6.73;;;4.40;;
11699;SDS011;5906;51.660;6.674;2024-02-16T02:56:56;9.07;;;4.80;;
11699;SDS011;5906;51.660;6.674;2024-02-16T02:59:23;10.77;;;4.70;;
11699;SDS011;5906;51.660;6.674;2024-02-16T03:01:50;8.43;;;4.83;;
11699;SDS011;5906;51.660;6.674;2024-02-16T03:04:17;12.37;;;4.43;;
11699;SDS011;5906;51.660;6.674;2024-02-16T03:06:45;18.53;;;4.67;;
11699;SDS011;5906;51.660;6.674;2024-02-16T03:09:12;6.50;;;4.23;;
11699;SDS011;5906;51.660;6.674;2024-02-16T03:11:39;4.90;;;4.00;;
11699;SDS011;5906;51.660;6.674;2024-02-16T03:14:06;16.27;;;4.43;;
11699;SDS011;5906;51.660;6.674;2024-02-16T03:16:34;7.30;;;4.53;;
11699;SDS011;5906;51.660;6.674;2024-02-16T03:19:01;5.80;;;4.17;;
11699;SDS011;5906;51.660;6.674;2024-02-16T03:21:31;7.73;;;4.30;;
11699;SDS011;5906;51.660;6.674;2024-02-16T03:23:59;6.37;;;4.33;;
11699;SDS011;5906;51.660;6.674;2024-02-16T03:26:27;7.80;;;4.43;;
11699;SDS011;5906;51.660;6.674;2024-02-16T03:28:54;9.63;;;5.57;;
11699;SDS011;5906;51.660;6.674;2024-02-16T03:31:22;9.90;;;4.97;;
11699;SDS011;5906;51.660;6.674;2024-02-16T03:33:50;8.43;;;4.83;;
11699;SDS011;5906;51.660;6.674;2024-02-16T03:36:18;6.77;;;4.77;;
11699;SDS011;5906;51.660;6.674;2024-02-16T03:38:48;16.80;;;4.67;;
11699;SDS011;5906;51.660;6.674;2024-02-16T03:41:19;12.23;;;5.10;;
11699;SDS011;5906;51.660;6.674;2024-02-16T03:43:48;11.90;;;5.07;;
11699;SDS011;5906;51.660;6.674;2024-02-16T03:46:15;11.13;;;5.10;;
11699;SDS011;5906;51.660;6.674;2024-02-16T03:48:42;6.27;;;4.93;;
11699;SDS011;5906;51.660;6.674;2024-02-16T03:51:11;6.67;;;4.40;;
11699;SDS011;5906;51.660;6.674;2024-02-16T03:53:38;10.10;;;4.00;;
11699;SDS011;5906;51.660;6.674;2024-02-16T03:56:06;7.17;;;4.03;;
11699;SDS011;5906;51.660;6.674;2024-02-16T03:58:34;8.53;;;4.00;;
11699;SDS011;5906;51.660;6.674;2024-02-16T04:01:02;7.27;;;3.70;;
11699;SDS011;5906;51.660;6.674;2024-02-16T04:03:29;7.40;;;4.27;;
11699;SDS011;5906;51.660;6.674;2024-02-16T04:05:56;6.70;;;3.90;;
11699;SDS011;5906;51.660;6.674;2024-02-16T04:08:23;8.80;;;4.37;;
11699;SDS011;5906;51.660;6.674;2024-02-16T04:10:50;6.10;;;4.10;;
11699;SDS011;5906;51.660;6.674;2024-02-16T04:13:17;6.20;;;3.90;;
11699;SDS011;5906;51.660;6.674;2024-02-16T04:15:44;9.63;;;3.90;;
11699;SDS011;5906;51.660;6.674;2024-02-16T04:18:11;5.93;;;3.87;;
11699;SDS011;5906;51.660;6.674;2024-02-16T04:20:38;7.67;;;4.37;;
11699;SDS011;5906;51.660;6.674;2024-02-16T04:23:07;8.37;;;4.03;;
11699;SDS011;5906;51.660;6.674;2024-02-16T04:25:34;8.33;;;4.20;;
11699;SDS011;5906;51.660;6.674;2024-02-16T04:28:01;5.30;;;3.47;;
11699;SDS011;5906;51.660;6.674;2024-02-16T04:30:28;5.17;;;3.63;;
11699;SDS011;5906;51.660;6.674;2024-02-16T04:32:55;9.83;;;4.50;;
11699;SDS011;5906;51.660;6.674;2024-02-16T04:35:22;6.90;;;3.90;;
11699;SDS011;5906;51.660;6.674;2024-02-16T04:37:49;9.30;;;4.50;;
11699;SDS011;5906;51.660;6.674;2024-02-16T04:40:16;6.93;;;4.27;;
11699;SDS011;5906;51.660;6.674;2024-02-16T04:42:43;7.67;;;3.93;;
11699;SDS011;5906;51.660;6.674;2024-02-16T04:45:11;11.10;;;3.90;;
11699;SDS011;5906;51.660;6.674;2024-02-16T04:47:40;9.37;;;4.60;;
11699;SDS011;5906;51.660;6.674;2024-02-16T04:50:07;8.53;;;3.80;;
11699;SDS011;5906;51.660;6.674;2024-02-16T04:52:36;7.20;;;4.20;;
11699;SDS011;5906;51.660;6.674;2024-02-16T04:55:06;9.73;;;4.37;;
11699;SDS011;5906;51.660;6.674;2024-02-16T04:57:34;12.27;;;4.30;;
11699;SDS011;5906;51.660;6.674;2024-02-16T05:00:01;7.47;;;4.40;;
11699;SDS011;5906;51.660;6.674;2024-02-16T05:02:29;7.83;;;3.83;;
11699;SDS011;5906;51.660;6.674;2024-02-16T05:04:56;7.03;;;4.40;;
11699;SDS011;5906;51.660;6.674;2024-02-16T05:07:27;10.10;;;4.50;;
11699;SDS011;5906;51.660;6.674;2024-02-16T05:09:54;4.70;;;3.10;;
11699;SDS011;5906;51.660;6.674;2024-02-16T05:12:24;6.63;;;3.90;;
11699;SDS011;5906;51.660;6.674;2024-02-16T05:14:53;8.90;;;4.27;;
11699;SDS011;5906;51.660;6.674;2024-02-16T05:17:20;6.70;;;3.90;;
11699;SDS011;5906;51.660;6.674;2024-02-16T05:19:49;5.60;;;3.60;;
11699;SDS011;5906;51.660;6.674;2024-02-16T05:22:19;3.33;;;3.03;;
11699;SDS011;5906;51.660;6.674;2024-02-16T05:24:48;6.27;;;4.03;;
11699;SDS011;5906;51.660;6.674;2024-02-16T05:27:15;7.63;;;3.57;;
11699;SDS011;5906;51.660;6.674;2024-02-16T05:29:43;6.53;;;3.40;;
11699;SDS011;5906;51.660;6.674;2024-02-16T05:32:10;5.70;;;3.90;;
11699;SDS011;5906;51.660;6.674;2024-02-16T05:34:39;6.43;;;3.90;;
11699;SDS011;5906;51.660;6.674;2024-02-16T05:37:06;5.70;;;4.00;;
11699;SDS011;5906;51.660;6.674;2024-02-16T05:39:33;6.50;;;3.70;;
11699;SDS011;5906;51.660;6.674;2024-02-16T05:42:10;6.30;;;4.50;;
11699;SDS011;5906;51.660;6.674;2024-02-16T05:44:37;6.07;;;4.03;;
11699;SDS011;5906;51.660;6.674;2024-02-16T05:47:04;11.33;;;3.90;;
11699;SDS011;5906;51.660;6.674;2024-02-16T05:49:31;6.20;;;4.07;;
11699;SDS011;5906;51.660;6.674;2024-02-16T05:51:58;7.50;;;4.87;;
11699;SDS011;5906;51.660;6.674;2024-02-16T05:54:44;7.07;;;4.13;;
11699;SDS011;5906;51.660;6.674;2024-02-16T05:57:12;6.87;;;4.00;;
11699;SDS011;5906;51.660;6.674;2024-02-16T05:59:39;9.80;;;4.53;;
11699;SDS011;5906;51.660;6.674;2024-02-16T06:02:09;6.03;;;3.90;;
11699;SDS011;5906;51.660;6.674;2024-02-16T06:04:38;9.53;;;5.07;;
11699;SDS011;5906;51.660;6.674;2024-02-16T06:07:06;8.73;;;3.80;;
11699;SDS011;5906;51.660;6.674;2024-02-16T06:09:33;7.40;;;4.00;;
11699;SDS011;5906;51.660;6.674;2024-02-16T06:12:02;6.93;;;4.33;;
11699;SDS011;5906;51.660;6.674;2024-02-16T06:14:31;7.63;;;4.73;;
11699;SDS011;5906;51.660;6.674;2024-02-16T06:16:58;6.83;;;4.43;;
11699;SDS011;5906;51.660;6.674;2024-02-16T06:19:26;6.50;;;3.67;;
11699;SDS011;5906;51.660;6.674;2024-02-16T06:21:53;10.83;;;4.63;;
11699;SDS011;5906;51.660;6.674;2024-02-16T06:24:24;7.43;;;3.77;;
11699;SDS011;5906;51.660;6.674;2024-02-16T06:26:52;9.73;;;4.13;;
11699;SDS011;5906;51.660;6.674;2024-02-16T06:29:23;6.00;;;3.93;;
11699;SDS011;5906;51.660;6.674;2024-02-16T06:31:51;7.00;;;3.93;;
11699;SDS011;5906;51.660;6.674;2024-02-16T06:34:26;7.63;;;4.57;;
11699;SDS011;5906;51.660;6.674;2024-02-16T06:36:54;12.03;;;4.50;;
11699;SDS011;5906;51.660;6.674;2024-02-16T06:39:21;9.03;;;4.20;;
11699;SDS011;5906;51.660;6.674;2024-02-16T06:41:48;4.93;;;3.97;;
11699;SDS011;5906;51.660;6.674;2024-02-16T06:44:15;14.63;;;4.57;;
11699;SDS011;5906;51.660;6.674;2024-02-16T06:46:47;6.77;;;3.80;;
11699;SDS011;5906;51.660;6.674;2024-02-16T06:49:13;7.40;;;4.30;;
11699;SDS011;5906;51.660;6.674;2024-02-16T06:51:40;6.83;;;3.90;;
11699;SDS011;5906;51.660;6.674;2024-02-16T06:54:08;6.77;;;4.10;;
11699;SDS011;5906;51.660;6.674;2024-02-16T06:56:34;8.50;;;4.67;;
11699;SDS011;5906;51.660;6.674;2024-02-16T06:59:04;13.20;;;4.87;;
11699;SDS011;5906;51.660;6.674;2024-02-16T07:01:33;12.20;;;5.30;;
11699;SDS011;5906;51.660;6.674;2024-02-16T07:04:00;16.23;;;5.33;;
11699;SDS011;5906;51.660;6.674;2024-02-16T07:06:44;8.50;;;4.80;;
11699;SDS011;5906;51.660;6.674;2024-02-16T07:09:38;10.33;;;4.87;;
11699;SDS011;5906;51.660;6.674;2024-02-16T07:12:17;13.93;;;5.20;;
11699;SDS011;5906;51.660;6.674;2024-02-16T07:19:29;12.90;;;4.77;;
11699;SDS011;5906;51.660;6.674;2024-02-16T07:22:19;11.30;;;4.60;;
11699;SDS011;5906;51.660;6.674;2024-02-16T07:24:48;10.20;;;4.97;;
11699;SDS011;5906;51.660;6.674;2024-02-16T07:27:28;7.50;;;4.67;;
11699;SDS011;5906;51.660;6.674;2024-02-16T07:30:00;15.43;;;4.90;;
11699;SDS011;5906;51.660;6.674;2024-02-16T07:32:28;10.23;;;5.20;;
11699;SDS011;5906;51.660;6.674;2024-02-16T07:34:59;9.00;;;5.30;;
11699;SDS011;5906;51.660;6.674;2024-02-16T07:37:35;6.70;;;4.97;;
11699;SDS011;5906;51.660;6.674;2024-02-16T07:40:06;11.23;;;5.03;;
11699;SDS011;5906;51.660;6.674;2024-02-16T07:42:39;17.60;;;5.20;;
11699;SDS011;5906;51.660;6.674;2024-02-16T07:45:12;6.70;;;4.30;;
11699;SDS011;5906;51.660;6.674;2024-02-16T07:48:00;7.00;;;4.63;;
11699;SDS011;5906;51.660;6.674;2024-02-16T07:50:32;8.07;;;5.03;;
11699;SDS011;5906;51.660;6.674;2024-02-16T07:52:59;7.50;;;5.23;;
11699;SDS011;5906;51.660;6.674;2024-02-16T07:55:26;6.80;;;4.10;;
11699;SDS011;5906;51.660;6.674;2024-02-16T07:57:54;6.10;;;4.53;;
11699;SDS011;5906;51.660;6.674;2024-02-16T08:00:21;10.70;;;4.23;;
11699;SDS011;5906;51.660;6.674;2024-02-16T08:02:48;8.00;;;4.13;;
11699;SDS011;5906;51.660;6.674;2024-02-16T08:05:15;4.10;;;3.70;;
11699;SDS011;5906;51.660;6.674;2024-02-16T08:07:46;5.00;;;3.47;;
11699;SDS011;5906;51.660;6.674;2024-02-16T08:10:14;9.90;;;4.27;;
11699;SDS011;5906;51.660;6.674;2024-02-16T08:12:41;6.60;;;4.90;;
11699;SDS011;5906;51.660;6.674;2024-02-16T08:15:08;10.23;;;4.00;;
11699;SDS011;5906;51.660;6.674;2024-02-16T08:17:38;9.30;;;4.30;;
11699;SDS011;5906;51.660;6.674;2024-02-16T08:20:26;9.70;;;4.03;;
11699;SDS011;5906;51.660;6.674;2024-02-16T08:23:04;10.00;;;4.30;;
11699;SDS011;5906;51.660;6.674;2024-02-16T08:25:31;4.90;;;3.70;;
11699;SDS011;5906;51.660;6.674;2024-02-16T08:27:59;5.87;;;4.23;;
11699;SDS011;5906;51.660;6.674;2024-02-16T08:30:27;11.07;;;4.17;;
11699;SDS011;5906;51.660;6.674;2024-02-16T08:32:55;6.57;;;4.33;;
11699;SDS011;5906;51.660;6.674;2024-02-16T08:35:26;9.07;;;4.87;;
11699;SDS011;5906;51.660;6.674;2024-02-16T08:37:54;9.07;;;4.20;;
11699;SDS011;5906;51.660;6.674;2024-02-16T08:40:21;6.70;;;3.63;;
11699;SDS011;5906;51.660;6.674;2024-02-16T08:42:47;6.43;;;3.50;;
11699;SDS011;5906;51.660;6.674;2024-02-16T08:45:18;7.70;;;3.63;;
11699;SDS011;5906;51.660;6.674;2024-02-16T08:47:49;10.30;;;3.97;;
11699;SDS011;5906;51.660;6.674;2024-02-16T08:50:19;6.17;;;3.60;;
11699;SDS011;5906;51.660;6.674;2024-02-16T08:52:49;6.23;;;3.40;;
11699;SDS011;5906;51.660;6.674;2024-02-16T08:55:16;8.70;;;3.43;;
11699;SDS011;5906;51.660;6.674;2024-02-16T08:57:54;7.13;;;3.50;;
11699;SDS011;5906;51.660;6.674;2024-02-16T09:00:21;5.07;;;3.90;;
11699;SDS011;5906;51.660;6.674;2024-02-16T09:02:49;7.97;;;4.03;;
11699;SDS011;5906;51.660;6.674;2024-02-16T09:05:16;6.47;;;3.80;;
11699;SDS011;5906;51.660;6.674;2024-02-16T09:07:44;10.17;;;4.60;;
11699;SDS011;5906;51.660;6.674;2024-02-16T09:10:16;8.10;;;3.83;;
11699;SDS011;5906;51.660;6.674;2024-02-16T09:12:45;12.57;;;4.23;;
11699;SDS011;5906;51.660;6.674;2024-02-16T09:15:13;5.70;;;3.83;;
11699;SDS011;5906;51.660;6.674;2024-02-16T09:17:40;7.40;;;3.87;;
11699;SDS011;5906;51.660;6.674;2024-02-16T09:20:08;6.60;;;3.73;;
11699;SDS011;5906;51.660;6.674;2024-02-16T09:22:40;7.13;;;3.40;;
11699;SDS011;5906;51.660;6.674;2024-02-16T09:25:12;6.73;;;3.60;;
11699;SDS011;5906;51.660;6.674;2024-02-16T09:27:40;9.70;;;3.77;;
11699;SDS011;5906;51.660;6.674;2024-02-16T09:30:12;12.10;;;3.60;;
11699;SDS011;5906;51.660;6.674;2024-02-16T09:32:39;8.67;;;3.73;;
11699;SDS011;5906;51.660;6.674;2024-02-16T09:35:08;8.20;;;4.17;;
11699;SDS011;5906;51.660;6.674;2024-02-16T09:37:36;5.43;;;3.40;;
11699;SDS011;5906;51.660;6.674;2024-02-16T09:40:05;16.10;;;4.10;;
11699;SDS011;5906;51.660;6.674;2024-02-16T09:42:35;5.40;;;3.60;;
11699;SDS011;5906;51.660;6.674;2024-02-16T09:45:05;10.97;;;3.70;;
11699;SDS011;5906;51.660;6.674;2024-02-16T09:47:38;6.47;;;3.87;;
11699;SDS011;5906;51.660;6.674;2024-02-16T09:50:19;7.97;;;3.93;;
11699;SDS011;5906;51.660;6.674;2024-02-16T09:52:48;9.13;;;4.03;;
11699;SDS011;5906;51.660;6.674;2024-02-16T09:55:16;4.47;;;3.70;;
11699;SDS011;5906;51.660;6.674;2024-02-16T09:57:44;7.40;;;3.73;;
11699;SDS011;5906;51.660;6.674;2024-02-16T10:00:11;7.43;;;4.80;;
11699;SDS011;5906;51.660;6.674;2024-02-16T10:02:40;7.10;;;4.27;;
11699;SDS011;5906;51.660;6.674;2024-02-16T10:05:13;12.10;;;3.50;;
11699;SDS011;5906;51.660;6.674;2024-02-16T10:07:41;8.97;;;3.73;;
11699;SDS011;5906;51.660;6.674;2024-02-16T10:10:27;10.67;;;3.60;;
11699;SDS011;5906;51.660;6.674;2024-02-16T10:13:02;6.60;;;4.40;;
11699;SDS011;5906;51.660;6.674;2024-02-16T10:15:31;9.60;;;4.10;;
11699;SDS011;5906;51.660;6.674;2024-02-16T10:18:00;7.23;;;4.20;;
11699;SDS011;5906;51.660;6.674;2024-02-16T10:20:29;11.53;;;3.93;;
11699;SDS011;5906;51.660;6.674;2024-02-16T10:25:30;6.17;;;4.00;;
11699;SDS011;5906;51.660;6.674;2024-02-16T10:27:58;5.40;;;3.60;;
11699;SDS011;5906;51.660;6.674;2024-02-16T10:30:37;6.70;;;3.97;;
11699;SDS011;5906;51.660;6.674;2024-02-16T10:33:05;9.00;;;4.23;;
11699;SDS011;5906;51.660;6.674;2024-02-16T10:35:36;9.57;;;4.23;;
11699;SDS011;5906;51.660;6.674;2024-02-16T10:38:04;6.40;;;4.10;;
11699;SDS011;5906;51.660;6.674;2024-02-16T10:40:33;10.17;;;4.10;;
11699;SDS011;5906;51.660;6.674;2024-02-16T10:43:04;11.03;;;4.60;;
11699;SDS011;5906;51.660;6.674;2024-02-16T10:45:40;10.80;;;4.03;;
11699;SDS011;5906;51.660;6.674;2024-02-16T10:48:08;5.00;;;4.10;;
11699;SDS011;5906;51.660;6.674;2024-02-16T10:50:35;4.80;;;4.17;;
11699;SDS011;5906;51.660;6.674;2024-02-16T10:53:23;8.73;;;4.60;;
11699;SDS011;5906;51.660;6.674;2024-02-16T10:55:52;7.80;;;4.50;;
11699;SDS011;5906;51.660;6.674;2024-02-16T10:58:19;9.80;;;4.30;;
11699;SDS011;5906;51.660;6.674;2024-02-16T11:00:56;9.60;;;5.10;;
11699;SDS011;5906;51.660;6.674;2024-02-16T11:03:25;14.00;;;4.90;;
11699;SDS011;5906;51.660;6.674;2024-02-16T11:05:54;13.30;;;5.43;;
11699;SDS011;5906;51.660;6.674;2024-02-16T11:08:23;7.43;;;4.90;;
11699;SDS011;5906;51.660;6.674;2024-02-16T11:10:57;6.83;;;4.57;;
11699;SDS011;5906;51.660;6.674;2024-02-16T11:13:33;8.47;;;4.70;;
11699;SDS011;5906;51.660;6.674;2024-02-16T11:16:02;5.77;;;4.47;;
11699;SDS011;5906;51.660;6.674;2024-02-16T11:18:56;11.83;;;5.00;;
11699;SDS011;5906;51.660;6.674;2024-02-16T11:22:03;6.87;;;4.60;;
11699;SDS011;5906;51.660;6.674;2024-02-16T11:24:44;12.43;;;5.30;;
11699;SDS011;5906;51.660;6.674;2024-02-16T11:27:35;12.10;;;4.73;;
11699;SDS011;5906;51.660;6.674;2024-02-16T11:30:04;11.50;;;5.23;;
11699;SDS011;5906;51.660;6.674;2024-02-16T11:32:37;6.80;;;4.30;;
11699;SDS011;5906;51.660;6.674;2024-02-16T11:35:05;6.93;;;4.60;;
11699;SDS011;5906;51.660;6.674;2024-02-16T11:37:39;11.23;;;4.33;;
11699;SDS011;5906;51.660;6.674;2024-02-16T11:40:12;7.73;;;4.50;;
11699;SDS011;5906;51.660;6.674;2024-02-16T11:42:46;9.27;;;5.00;;
11699;SDS011;5906;51.660;6.674;2024-02-16T11:54:34;14.17;;;6.07;;
11699;SDS011;5906;51.660;6.674;2024-02-16T11:57:04;9.90;;;5.40;;
11699;SDS011;5906;51.660;6.674;2024-02-16T11:59:31;11.17;;;6.30;;
11699;SDS011;5906;51.660;6.674;2024-02-16T12:01:58;11.57;;;5.27;;
11699;SDS011;5906;51.660;6.674;2024-02-16T12:04:29;16.27;;;5.20;;
11699;SDS011;5906;51.660;6.674;2024-02-16T12:06:58;7.73;;;5.27;;
11699;SDS011;5906;51.660;6.674;2024-02-16T12:09:32;11.23;;;5.47;;
11699;SDS011;5906;51.660;6.674;2024-02-16T12:12:02;11.37;;;5.90;;
11699;SDS011;5906;51.660;6.674;2024-02-16T12:14:32;7.70;;;5.30;;
11699;SDS011;5906;51.660;6.674;2024-02-16T12:17:01;12.97;;;6.50;;
11699;SDS011;5906;51.660;6.674;2024-02-16T12:19:28;19.00;;;5.83;;
11699;SDS011;5906;51.660;6.674;2024-02-16T12:21:55;11.00;;;6.37;;
11699;SDS011;5906;51.660;6.674;2024-02-16T12:24:25;13.03;;;5.90;;
11699;SDS011;5906;51.660;6.674;2024-02-16T12:26:52;15.00;;;6.70;;
11699;SDS011;5906;51.660;6.674;2024-02-16T12:29:20;12.37;;;6.40;;
11699;SDS011;5906;51.660;6.674;2024-02-16T12:31:47;15.20;;;7.80;;
11699;SDS011;5906;51.660;6.674;2024-02-16T12:34:16;10.73;;;6.13;;
11699;SDS011;5906;51.660;6.674;2024-02-16T12:36:43;18.23;;;7.20;;
11699;SDS011;5906;51.660;6.674;2024-02-16T12:39:15;15.43;;;6.70;;
11699;SDS011;5906;51.660;6.674;2024-02-16T12:41:43;11.87;;;7.40;;
11699;SDS011;5906;51.660;6.674;2024-02-16T12:44:10;9.93;;;6.40;;
11699;SDS011;5906;51.660;6.674;2024-02-16T12:46:37;12.93;;;6.40;;
11699;SDS011;5906;51.660;6.674;2024-02-16T12:49:05;9.70;;;6.23;;
11699;SDS011;5906;51.660;6.674;2024-02-16T12:51:34;13.93;;;6.67;;
11699;SDS011;5906;51.660;6.674;2024-02-16T12:54:01;13.70;;;6.77;;
11699;SDS011;5906;51.660;6.674;2024-02-16T12:56:31;14.83;;;6.23;;
11699;SDS011;5906;51.660;6.674;2024-02-16T12:58:58;13.90;;;6.60;;
11699;SDS011;5906;51.660;6.674;2024-02-16T13:01:36;16.23;;;7.80;;
11699;SDS011;5906;51.660;6.674;2024-02-16T13:04:11;15.70;;;7.97;;
11699;SDS011;5906;51.660;6.674;2024-02-16T13:06:39;13.70;;;8.63;;
11699;SDS011;5906;51.660;6.674;2024-02-16T13:09:06;16.07;;;9.07;;
11699;SDS011;5906;51.660;6.674;2024-02-16T13:11:35;14.90;;;8.80;;
11699;SDS011;5906;51.660;6.674;2024-02-16T13:14:02;17.73;;;9.57;;
11699;SDS011;5906;51.660;6.674;2024-02-16T13:16:29;30.87;;;9.73;;
11699;SDS011;5906;51.660;6.674;2024-02-16T13:18:57;15.17;;;9.20;;
11699;SDS011;5906;51.660;6.674;2024-02-16T13:21:24;15.13;;;9.43;;
11699;SDS011;5906;51.660;6.674;2024-02-16T13:23:50;17.37;;;8.50;;
11699;SDS011;5906;51.660;6.674;2024-02-16T13:26:18;20.67;;;10.13;;
11699;SDS011;5906;51.660;6.674;2024-02-16T13:28:45;15.40;;;9.27;;
11699;SDS011;5906;51.660;6.674;2024-02-16T13:31:11;20.97;;;9.30;;
11699;SDS011;5906;51.660;6.674;2024-02-16T13:33:39;14.80;;;9.17;;
11699;SDS011;5906;51.660;6.674;2024-02-16T13:36:06;17.00;;;9.77;;
11699;SDS011;5906;51.660;6.674;2024-02-16T13:38:33;18.80;;;10.10;;
11699;SDS011;5906;51.660;6.674;2024-02-16T13:41:00;23.87;;;9.90;;
11699;SDS011;5906;51.660;6.674;2024-02-16T13:43:27;17.63;;;9.43;;
11699;SDS011;5906;51.660;6.674;2024-02-16T13:45:54;20.80;;;10.03;;
11699;SDS011;5906;51.660;6.674;2024-02-16T13:48:22;16.27;;;10.37;;
11699;SDS011;5906;51.660;6.674;2024-02-16T13:50:50;13.70;;;9.90;;
11699;SDS011;5906;51.660;6.674;2024-02-16T13:53:17;16.37;;;9.60;;
11699;SDS011;5906;51.660;6.674;2024-02-16T13:55:47;19.13;;;10.07;;
11699;SDS011;5906;51.660;6.674;2024-02-16T13:58:15;16.43;;;12.37;;
11699;SDS011;5906;51.660;6.674;2024-02-16T14:00:42;17.97;;;10.67;;
11699;SDS011;5906;51.660;6.674;2024-02-16T14:03:11;12.33;;;9.10;;
11699;SDS011;5906;51.660;6.674;2024-02-16T14:05:40;21.77;;;10.80;;
11699;SDS011;5906;51.660;6.674;2024-02-16T14:08:11;19.30;;;9.67;;
11699;SDS011;5906;51.660;6.674;2024-02-16T14:10:39;21.50;;;9.80;;
11699;SDS011;5906;51.660;6.674;2024-02-16T14:13:06;13.40;;;10.10;;
11699;SDS011;5906;51.660;6.674;2024-02-16T14:15:33;17.20;;;9.53;;
11699;SDS011;5906;51.660;6.674;2024-02-16T14:18:00;16.20;;;9.07;;
11699;SDS011;5906;51.660;6.674;2024-02-16T14:20:37;16.83;;;9.17;;
11699;SDS011;5906;51.660;6.674;2024-02-16T14:23:04;11.23;;;8.73;;
11699;SDS011;5906;51.660;6.674;2024-02-16T14:25:34;13.60;;;9.50;;
11699;SDS011;5906;51.660;6.674;2024-02-16T14:28:04;12.90;;;8.67;;
11699;SDS011;5906;51.660;6.674;2024-02-16T14:30:31;11.77;;;8.20;;
11699;SDS011;5906;51.660;6.674;2024-02-16T14:33:00;12.17;;;8.43;;
11699;SDS011;5906;51.660;6.674;2024-02-16T14:35:27;12.53;;;9.00;;
11699;SDS011;5906;51.660;6.674;2024-02-16T14:37:54;12.50;;;8.60;;
11699;SDS011;5906;51.660;6.674;2024-02-16T14:40:21;10.40;;;8.00;;
11699;SDS011;5906;51.660;6.674;2024-02-16T14:42:49;14.23;;;8.00;;
11699;SDS011;5906;51.660;6.674;2024-02-16T14:45:16;20.00;;;9.10;;
11699;SDS011;5906;51.660;6.674;2024-02-16T14:47:47;10.40;;;8.73;;
11699;SDS011;5906;51.660;6.674;2024-02-16T14:50:15;11.37;;;7.83;;
11699;SDS011;5906;51.660;6.674;2024-02-16T14:52:42;14.70;;;7.90;;
11699;SDS011;5906;51.660;6.674;2024-02-16T14:55:12;10.30;;;7.63;;
11699;SDS011;5906;51.660;6.674;2024-02-16T14:57:41;10.60;;;8.47;;
11699;SDS011;5906;51.660;6.674;2024-02-16T15:00:08;10.43;;;8.07;;
11699;SDS011;5906;51.660;6.674;2024-02-16T15:02:38;15.60;;;8.07;;
11699;SDS011;5906;51.660;6.674;2024-02-16T15:05:07;8.40;;;7.47;;
11699;SDS011;5906;51.660;6.674;2024-02-16T15:07:35;9.67;;;8.57;;
11699;SDS011;5906;51.660;6.674;2024-02-16T15:10:03;10.67;;;8.67;;
11699;SDS011;5906;51.660;6.674;2024-02-16T15:12:34;11.60;;;9.57;;
11699;SDS011;5906;51.660;6.674;2024-02-16T15:15:12;10.00;;;8.37;;
11699;SDS011;5906;51.660;6.674;2024-02-16T15:18:02;11.20;;;8.63;;
11699;SDS011;5906;51.660;6.674;2024-02-16T15:20:46;11.83;;;8.03;;
11699;SDS011;5906;51.660;6.674;2024-02-16T15:23:21;12.60;;;8.37;;
11699;SDS011;5906;51.660;6.674;2024-02-16T15:25:51;11.87;;;8.30;;